Time;durP1;ratioP1;P1;durP2;ratioP2;P2;SDS_P1;SDS_P2;PMS_P1;PMS_P2;Temp;Humidity;BMP_temperature;BMP_pressure;BME280_temperature;BME280_humidity;BME280_pressure;Samples;Min_cycle;Max_cycle;Signal;HPM_P1;HPM_P2
2022/04/14 00:01:36;;;;;;;14.13;8.80;;;15.10;99.90;;;;;;4995282;28;20244;-80
2022/04/14 00:04:01;;;;;;;17.33;9.10;;;15.10;99.90;;;;;;4995198;28;20232;-79
2022/04/14 00:06:27;;;;;;;13.93;9.10;;;14.90;99.90;;;;;;4994491;28;20177;-81
2022/04/14 00:08:52;;;;;;;19.80;9.93;;;14.90;99.90;;;;;;4994979;28;20170;-79
2022/04/14 00:11:19;;;;;;;14.93;10.07;;;14.80;99.90;;;;;;4993621;28;20209;-80
2022/04/14 00:13:45;;;;;;;13.10;9.37;;;14.80;99.90;;;;;;4995246;28;20739;-81
2022/04/14 00:16:10;;;;;;;17.20;10.60;;;14.70;99.90;;;;;;4993394;28;20475;-81
2022/04/14 00:18:36;;;;;;;14.40;8.93;;;14.70;99.90;;;;;;4994209;28;20425;-79
2022/04/14 00:21:02;;;;;;;15.83;10.50;;;14.70;99.90;;;;;;4994001;28;20224;-79
2022/04/14 00:23:27;;;;;;;17.27;10.47;;;14.60;99.90;;;;;;4994481;28;20181;-80
2022/04/14 00:25:53;;;;;;;17.97;11.70;;;14.60;99.90;;;;;;4994462;28;20186;-80
2022/04/14 00:28:18;;;;;;;18.53;10.03;;;14.50;99.90;;;;;;4994205;28;20294;-80
2022/04/14 00:30:44;;;;;;;23.93;12.10;;;14.60;99.90;;;;;;4993463;28;20217;-80
2022/04/14 00:33:09;;;;;;;19.17;12.23;;;14.50;99.90;;;;;;4994498;28;20699;-80
2022/04/14 00:35:35;;;;;;;16.97;11.40;;;14.50;99.90;;;;;;4994533;28;20703;-81
2022/04/14 00:38:00;;;;;;;21.37;12.10;;;14.50;99.90;;;;;;5008853;28;20207;-80
2022/04/14 00:40:26;;;;;;;20.10;11.57;;;14.50;99.90;;;;;;5012441;28;20188;-79
2022/04/14 00:42:52;;;;;;;18.47;12.10;;;14.40;99.90;;;;;;4993858;28;20185;-81
2022/04/14 00:45:18;;;;;;;21.67;13.23;;;14.40;99.90;;;;;;4995008;28;20249;-81
2022/04/14 00:47:44;;;;;;;23.70;14.00;;;14.40;99.90;;;;;;4994692;28;20424;-81
2022/04/14 00:50:10;;;;;;;21.00;13.40;;;14.40;99.90;;;;;;4993312;28;20748;-80
2022/04/14 00:52:43;;;;;;;21.57;13.93;;;14.40;99.90;;;;;;4994889;28;20529;-82
2022/04/14 00:55:08;;;;;;;22.97;14.40;;;14.40;99.90;;;;;;4994234;28;20461;-80
2022/04/14 00:57:34;;;;;;;22.43;15.37;;;14.40;99.90;;;;;;4994111;28;20837;-80
2022/04/14 00:59:59;;;;;;;23.97;14.50;;;14.40;99.90;;;;;;4994240;28;20282;-81
2022/04/14 01:02:25;;;;;;;22.73;13.60;;;14.50;99.90;;;;;;4993078;28;20185;-80
2022/04/14 01:04:51;;;;;;;19.70;13.50;;;14.50;99.90;;;;;;4992577;28;20686;-80
2022/04/14 01:07:17;;;;;;;23.70;14.43;;;14.60;99.90;;;;;;4993886;28;20645;-80
2022/04/14 01:09:43;;;;;;;24.60;14.70;;;14.60;99.90;;;;;;4994313;28;20184;-81
2022/04/14 01:12:09;;;;;;;23.07;13.33;;;14.60;99.90;;;;;;4994103;28;20846;-80
2022/04/14 01:14:37;;;;;;;23.47;13.20;;;14.60;99.90;;;;;;4994153;28;20528;-80
2022/04/14 01:17:07;;;;;;;22.07;12.90;;;14.60;99.90;;;;;;4993138;28;20416;-80
2022/04/14 01:19:34;;;;;;;21.80;13.70;;;14.60;99.90;;;;;;4992042;28;20432;-79
2022/04/14 01:22:25;;;;;;;20.83;14.30;;;14.70;99.90;;;;;;4993958;28;20427;-81
2022/04/14 01:24:56;;;;;;;22.93;13.70;;;14.70;99.90;;;;;;4992764;28;20453;-80
2022/04/14 01:27:22;;;;;;;21.00;12.73;;;14.70;99.90;;;;;;4992995;28;20488;-79
2022/04/14 01:29:51;;;;;;;20.00;12.53;;;14.60;99.90;;;;;;4993695;28;20412;-80
2022/04/14 01:32:18;;;;;;;26.20;14.33;;;14.60;99.90;;;;;;4993436;28;20417;-81
2022/04/14 01:34:44;;;;;;;26.33;13.50;;;14.60;99.90;;;;;;4993454;28;20523;-80
2022/04/14 01:37:10;;;;;;;20.20;13.60;;;14.60;99.90;;;;;;4996539;28;20425;-80
2022/04/14 01:39:35;;;;;;;21.30;13.53;;;14.60;99.90;;;;;;4996963;28;20236;-81
2022/04/14 01:42:01;;;;;;;23.40;14.10;;;14.60;99.90;;;;;;4996776;28;20924;-80
2022/04/14 01:44:27;;;;;;;21.13;12.57;;;14.50;99.90;;;;;;4997297;28;20209;-80
2022/04/14 01:46:52;;;;;;;23.03;13.03;;;14.50;99.90;;;;;;4996428;28;20186;-81
2022/04/14 01:49:21;;;;;;;20.07;13.50;;;14.60;99.90;;;;;;4996938;28;20206;-80
2022/04/14 01:51:48;;;;;;;19.90;12.40;;;14.50;99.90;;;;;;4996739;28;20178;-81
2022/04/14 01:54:14;;;;;;;24.63;13.47;;;14.50;99.90;;;;;;4994709;28;20544;-81
2022/04/14 01:56:40;;;;;;;20.10;12.80;;;14.50;99.90;;;;;;4995716;28;20467;-80
2022/04/14 01:59:05;;;;;;;19.70;12.40;;;14.50;99.90;;;;;;4996414;28;20786;-79
2022/04/14 02:01:31;;;;;;;20.47;13.07;;;14.50;99.90;;;;;;4994948;28;20181;-79
2022/04/14 02:03:59;;;;;;;20.67;12.87;;;14.60;99.90;;;;;;4994858;28;20619;-80
2022/04/14 02:06:25;;;;;;;25.03;13.40;;;14.60;99.90;;;;;;4995106;28;20189;-80
2022/04/14 02:08:51;;;;;;;25.43;14.33;;;14.70;99.90;;;;;;4996057;28;20756;-80
2022/04/14 02:11:16;;;;;;;22.10;13.13;;;14.70;99.90;;;;;;4996268;28;20186;-80
2022/04/14 02:13:43;;;;;;;23.83;13.27;;;14.70;99.90;;;;;;4994683;28;20237;-79
2022/04/14 02:16:08;;;;;;;22.23;13.60;;;14.80;99.90;;;;;;4995905;28;20692;-79
2022/04/14 02:18:35;;;;;;;26.57;14.50;;;14.80;99.90;;;;;;4995344;28;20423;-79
2022/04/14 02:21:00;;;;;;;21.97;13.93;;;14.70;99.90;;;;;;4994261;28;20205;-81
2022/04/14 02:23:26;;;;;;;24.67;14.43;;;14.70;99.90;;;;;;4995840;28;20429;-80
2022/04/14 02:25:52;;;;;;;24.87;14.73;;;14.80;99.90;;;;;;4994226;28;20193;-78
2022/04/14 02:28:17;;;;;;;22.50;13.83;;;14.80;99.90;;;;;;4993774;28;20436;-80
2022/04/14 02:30:43;;;;;;;22.57;13.83;;;14.80;99.90;;;;;;4994457;28;20182;-80
2022/04/14 02:33:09;;;;;;;23.00;13.57;;;14.80;99.90;;;;;;4994411;28;20256;-79
2022/04/14 02:35:34;;;;;;;19.83;12.10;;;14.80;99.90;;;;;;5117569;23;20249;-81
2022/04/14 02:38:00;;;;;;;19.73;12.60;;;14.80;99.90;;;;;;5073158;28;20175;-80
2022/04/14 02:40:26;;;;;;;19.37;13.37;;;14.70;99.90;;;;;;5073841;28;20653;-80
2022/04/14 02:42:54;;;;;;;26.43;14.43;;;14.70;99.90;;;;;;5073878;28;20167;-80
2022/04/14 02:45:20;;;;;;;27.63;13.80;;;14.70;99.90;;;;;;5073547;28;20950;-80
2022/04/14 02:47:46;;;;;;;25.57;15.10;;;14.70;99.90;;;;;;5072023;28;20409;-80
2022/04/14 02:50:11;;;;;;;23.73;14.43;;;14.70;99.90;;;;;;5055871;28;20428;-81
2022/04/14 02:52:37;;;;;;;25.37;13.57;;;14.70;99.90;;;;;;5073788;28;20618;-81
2022/04/14 02:55:03;;;;;;;25.03;14.13;;;14.70;99.90;;;;;;5073435;28;20678;-81
2022/04/14 02:57:30;;;;;;;28.60;15.57;;;14.70;99.90;;;;;;5072679;28;20179;-81
2022/04/14 02:59:56;;;;;;;22.33;14.10;;;14.60;99.90;;;;;;5056727;28;20175;-81
2022/04/14 03:02:22;;;;;;;27.63;14.50;;;14.60;99.90;;;;;;5075414;28;20478;-81
2022/04/14 03:04:47;;;;;;;25.63;14.97;;;14.50;99.90;;;;;;5075200;28;20437;-81
2022/04/14 03:07:13;;;;;;;23.93;14.37;;;14.50;99.90;;;;;;5056706;28;20179;-81
2022/04/14 03:09:39;;;;;;;23.57;13.37;;;14.40;99.90;;;;;;5075422;28;20182;-81
2022/04/14 03:12:05;;;;;;;27.23;15.10;;;14.50;99.90;;;;;;5074971;28;20171;-80
2022/04/14 03:14:30;;;;;;;27.13;15.67;;;14.50;99.90;;;;;;5078443;28;20202;-80
2022/04/14 03:16:57;;;;;;;24.13;14.10;;;14.30;99.90;;;;;;5077333;28;20776;-80
2022/04/14 03:19:22;;;;;;;26.10;14.57;;;14.20;99.90;;;;;;5078029;28;20174;-80
2022/04/14 03:21:48;;;;;;;24.40;14.13;;;14.40;99.90;;;;;;5077095;28;20413;-81
2022/04/14 03:24:14;;;;;;;25.43;14.53;;;14.50;99.90;;;;;;5059807;28;20199;-80
2022/04/14 03:26:39;;;;;;;26.60;14.10;;;14.50;99.90;;;;;;5077331;28;20179;-80
2022/04/14 03:29:05;;;;;;;23.50;14.03;;;14.50;99.90;;;;;;5077149;28;20249;-80
2022/04/14 03:31:33;;;;;;;22.93;13.40;;;14.50;99.90;;;;;;5077207;28;20198;-80
2022/04/14 03:33:59;;;;;;;24.87;14.87;;;14.50;99.90;;;;;;5059410;28;20703;-79
2022/04/14 03:36:25;;;;;;;24.03;13.63;;;14.50;99.90;;;;;;5055309;28;20469;-80
2022/04/14 03:38:50;;;;;;;22.87;14.60;;;14.50;99.90;;;;;;5073705;28;20171;-80
2022/04/14 03:41:16;;;;;;;23.20;13.73;;;14.40;99.90;;;;;;5074088;28;20167;-80
2022/04/14 03:43:41;;;;;;;25.40;13.27;;;14.50;99.90;;;;;;5055609;28;20270;-79
2022/04/14 03:46:08;;;;;;;25.70;14.33;;;14.40;99.90;;;;;;5073613;28;20532;-81
2022/04/14 03:48:34;;;;;;;25.10;14.57;;;14.40;99.90;;;;;;5072293;28;20178;-80
2022/04/14 03:51:00;;;;;;;26.27;14.77;;;14.40;99.90;;;;;;5055093;28;20490;-81
2022/04/14 03:53:25;;;;;;;27.40;14.30;;;14.40;99.90;;;;;;5075422;28;20889;-80
2022/04/14 03:55:51;;;;;;;31.90;15.47;;;14.50;99.90;;;;;;5077250;28;20207;-80
2022/04/14 03:58:17;;;;;;;28.50;16.10;;;14.40;99.90;;;;;;5059347;28;20179;-80
2022/04/14 04:00:42;;;;;;;22.33;14.57;;;14.30;99.90;;;;;;5060299;28;20217;-79
2022/04/14 04:03:09;;;;;;;26.27;14.87;;;14.20;99.90;;;;;;5078697;28;20167;-79
2022/04/14 04:05:35;;;;;;;28.37;16.83;;;14.10;99.90;;;;;;5077611;28;20229;-81
2022/04/14 04:08:01;;;;;;;28.17;16.53;;;14.10;99.90;;;;;;5076950;28;20896;-80
2022/04/14 04:10:26;;;;;;;26.03;16.40;;;14.10;99.90;;;;;;5076782;28;20258;-80
2022/04/14 04:12:52;;;;;;;34.37;17.37;;;14.10;99.90;;;;;;5077788;28;20174;-80
2022/04/14 04:15:17;;;;;;;32.50;18.30;;;14.00;99.90;;;;;;5076969;28;20207;-81
2022/04/14 04:17:45;;;;;;;32.53;18.50;;;14.00;99.90;;;;;;5076499;28;20548;-80
2022/04/14 04:20:11;;;;;;;37.50;19.27;;;13.90;99.90;;;;;;5077159;28;20206;-80
2022/04/14 04:22:36;;;;;;;39.73;19.10;;;13.90;99.90;;;;;;5058554;28;20405;-81
2022/04/14 04:25:03;;;;;;;30.90;18.90;;;13.90;99.90;;;;;;5057224;28;20203;-81
2022/04/14 04:27:29;;;;;;;36.30;20.07;;;14.00;99.90;;;;;;5054834;28;20179;-81
2022/04/14 04:29:55;;;;;;;34.13;20.57;;;14.10;99.90;;;;;;5073627;28;20412;-81
2022/04/14 04:32:21;;;;;;;34.40;19.20;;;14.10;99.90;;;;;;5062114;28;20432;-82
2022/04/14 04:34:46;;;;;;;31.70;17.70;;;14.00;99.90;;;;;;5080974;28;20214;-81
2022/04/14 04:37:12;;;;;;;33.63;18.40;;;14.00;99.90;;;;;;5078441;28;20210;-81
2022/04/14 04:39:37;;;;;;;36.13;20.10;;;14.00;99.90;;;;;;5077819;28;20179;-81
2022/04/14 04:42:03;;;;;;;37.73;19.10;;;14.10;99.90;;;;;;5078488;28;20236;-82
2022/04/14 04:44:29;;;;;;;34.17;18.83;;;14.10;99.90;;;;;;5079656;28;20195;-82
2022/04/14 04:46:54;;;;;;;36.67;19.23;;;14.00;99.90;;;;;;5060265;28;20187;-82
2022/04/14 04:49:20;;;;;;;33.73;17.40;;;14.10;99.90;;;;;;5079485;28;20183;-82
2022/04/14 04:51:45;;;;;;;31.23;17.10;;;14.10;99.90;;;;;;5061059;28;20891;-82
2022/04/14 04:54:11;;;;;;;35.47;18.30;;;14.10;99.90;;;;;;5059357;28;20739;-81
2022/04/14 04:56:36;;;;;;;36.40;18.97;;;14.10;99.90;;;;;;5058120;28;20202;-81
2022/04/14 04:59:02;;;;;;;34.70;18.17;;;14.10;99.90;;;;;;5058445;28;20175;-80
2022/04/14 05:01:28;;;;;;;38.97;20.27;;;14.10;99.90;;;;;;5075979;28;20680;-80
2022/04/14 05:03:53;;;;;;;38.20;19.20;;;14.10;99.90;;;;;;5076181;28;20252;-81
2022/04/14 05:06:19;;;;;;;35.00;19.73;;;14.00;99.90;;;;;;5057228;28;20182;-79
2022/04/14 05:08:46;;;;;;;34.80;18.43;;;14.00;99.90;;;;;;5054448;28;20183;-81
2022/04/14 05:11:13;;;;;;;38.03;18.90;;;14.10;99.90;;;;;;5076168;28;20171;-79
2022/04/14 05:13:38;;;;;;;41.13;21.20;;;14.10;99.90;;;;;;5059239;28;20855;-80
2022/04/14 05:16:06;;;;;;;37.27;20.47;;;14.10;99.90;;;;;;5077616;28;20476;-82
2022/04/14 05:18:32;;;;;;;40.00;19.00;;;14.10;99.90;;;;;;5077609;28;20163;-82
2022/04/14 05:20:58;;;;;;;34.67;20.00;;;14.10;99.90;;;;;;5078761;28;20517;-82
2022/04/14 05:23:23;;;;;;;35.37;17.90;;;14.10;99.90;;;;;;5078379;28;20436;-81
2022/04/14 05:25:49;;;;;;;38.70;19.60;;;14.20;99.90;;;;;;5059684;28;20831;-81
2022/04/14 05:28:15;;;;;;;34.73;19.80;;;14.10;99.90;;;;;;5077049;28;20179;-82
2022/04/14 05:30:40;;;;;;;33.97;19.57;;;14.10;99.90;;;;;;5077521;28;20285;-82
2022/04/14 05:33:10;;;;;;;30.10;18.30;;;14.10;99.90;;;;;;5059845;28;20262;-82
2022/04/14 05:35:37;;;;;;;32.20;18.30;;;14.10;99.90;;;;;;5058998;28;20215;-81
2022/04/14 05:38:03;;;;;;;37.20;18.53;;;14.20;99.90;;;;;;5059041;28;20417;-81
2022/04/14 05:40:29;;;;;;;39.13;18.80;;;14.20;99.90;;;;;;5076570;28;20409;-82
2022/04/14 05:42:54;;;;;;;35.73;17.43;;;14.30;99.90;;;;;;5077455;28;20409;-81
2022/04/14 05:45:21;;;;;;;37.07;19.47;;;14.20;99.90;;;;;;5076788;28;20283;-81
2022/04/14 05:47:46;;;;;;;34.47;18.10;;;14.30;99.90;;;;;;5058334;28;20179;-83
2022/04/14 05:50:12;;;;;;;33.60;19.07;;;14.30;99.90;;;;;;5058480;28;20562;-81
2022/04/14 05:52:38;;;;;;;34.90;18.83;;;14.30;99.90;;;;;;5076744;28;20186;-81
2022/04/14 05:55:04;;;;;;;26.60;16.90;;;14.30;99.90;;;;;;5076927;28;20452;-82
2022/04/14 05:57:30;;;;;;;30.93;17.30;;;14.20;99.90;;;;;;5076317;28;20179;-82
2022/04/14 05:59:56;;;;;;;33.97;16.73;;;14.20;99.90;;;;;;5058965;28;20943;-81
2022/04/14 06:02:22;;;;;;;29.17;16.43;;;14.30;99.90;;;;;;5076231;28;20171;-82
2022/04/14 06:04:47;;;;;;;34.60;17.13;;;14.30;99.90;;;;;;5076453;28;20436;-81
2022/04/14 06:07:13;;;;;;;31.73;17.37;;;14.30;99.90;;;;;;5073629;28;20179;-81
2022/04/14 06:09:38;;;;;;;25.03;15.03;;;14.30;99.90;;;;;;5074604;28;20182;-80
2022/04/14 06:12:04;;;;;;;32.33;18.20;;;14.40;99.90;;;;;;5074535;28;20207;-81
2022/04/14 06:14:32;;;;;;;28.93;15.10;;;14.40;99.90;;;;;;5074216;28;20232;-81
2022/04/14 06:16:58;;;;;;;32.70;18.60;;;14.30;99.90;;;;;;5073686;28;20437;-80
2022/04/14 06:19:24;;;;;;;32.80;17.63;;;14.40;99.90;;;;;;5056424;28;20437;-81
2022/04/14 06:21:49;;;;;;;35.60;19.30;;;14.40;99.90;;;;;;5056503;28;20184;-81
2022/04/14 06:24:15;;;;;;;35.00;19.80;;;14.50;99.90;;;;;;5074142;28;20190;-80
2022/04/14 06:26:40;;;;;;;33.33;19.20;;;14.50;99.90;;;;;;5073399;28;20179;-81
2022/04/14 06:29:06;;;;;;;27.77;15.53;;;14.60;99.90;;;;;;5056347;28;20542;-81
2022/04/14 06:31:32;;;;;;;34.53;17.27;;;14.70;99.90;;;;;;5074811;28;20171;-81
2022/04/14 06:33:57;;;;;;;29.97;17.40;;;14.80;99.90;;;;;;5056507;28;20262;-81
2022/04/14 06:36:23;;;;;;;32.70;16.60;;;14.90;99.90;;;;;;5074183;28;20296;-80
2022/04/14 06:38:48;;;;;;;32.50;17.03;;;15.10;99.90;;;;;;5056038;28;20179;-81
2022/04/14 06:41:14;;;;;;;28.57;16.27;;;15.20;99.90;;;;;;5056491;28;20171;-81
2022/04/14 06:43:39;;;;;;;33.73;17.43;;;15.30;99.90;;;;;;5075992;28;20168;-80
2022/04/14 06:46:05;;;;;;;29.13;15.70;;;15.40;99.90;;;;;;5058783;28;20566;-81
2022/04/14 06:48:31;;;;;;;27.33;15.63;;;15.60;99.90;;;;;;5073814;28;20175;-81
2022/04/14 06:50:58;;;;;;;27.17;15.23;;;15.70;99.90;;;;;;5078161;28;20619;-80
2022/04/14 06:53:24;;;;;;;24.30;14.50;;;15.70;99.90;;;;;;5056560;28;20186;-81
2022/04/14 06:55:50;;;;;;;24.60;15.00;;;15.80;99.90;;;;;;5073726;28;20461;-81
2022/04/14 06:58:15;;;;;;;22.97;13.90;;;15.90;99.90;;;;;;5073541;28;20195;-80
2022/04/14 07:00:41;;;;;;;21.40;13.80;;;15.90;99.90;;;;;;5073974;28;20164;-80
2022/04/14 07:03:07;;;;;;;22.33;13.47;;;16.00;99.90;;;;;;5074030;28;20262;-81
2022/04/14 07:05:32;;;;;;;23.63;13.03;;;16.10;99.90;;;;;;5073358;28;20199;-81
2022/04/14 07:07:58;;;;;;;22.13;12.83;;;16.20;99.90;;;;;;5055267;28;20171;-80
2022/04/14 07:10:23;;;;;;;19.27;11.53;;;16.20;99.90;;;;;;5073559;28;20177;-81
2022/04/14 07:12:49;;;;;;;22.07;14.07;;;16.10;99.90;;;;;;5073647;28;20260;-81
2022/04/14 07:15:15;;;;;;;19.30;11.80;;;16.20;99.90;;;;;;5073239;28;20202;-81
2022/04/14 07:17:41;;;;;;;24.53;14.20;;;16.20;99.90;;;;;;5073108;28;20201;-81
2022/04/14 07:20:09;;;;;;;21.93;12.87;;;16.30;99.90;;;;;;5073397;28;20540;-81
2022/04/14 07:22:52;;;;;;;26.30;14.13;;;16.30;99.90;;;;;;5073373;28;20428;-81
2022/04/14 07:25:18;;;;;;;20.70;13.27;;;16.20;99.90;;;;;;5055458;28;20441;-80
2022/04/14 07:27:44;;;;;;;21.60;12.20;;;16.30;99.90;;;;;;5072835;28;20475;-80
2022/04/14 07:30:10;;;;;;;24.20;15.53;;;16.30;99.90;;;;;;5055512;28;20179;-81
2022/04/14 07:32:37;;;;;;;26.07;12.60;;;16.30;99.90;;;;;;5074778;28;20171;-81
2022/04/14 07:35:04;;;;;;;20.33;13.20;;;16.20;99.90;;;;;;5072846;28;20995;-81
2022/04/14 07:37:31;;;;;;;22.00;12.30;;;16.20;99.90;;;;;;5054277;28;20414;-81
2022/04/14 07:39:57;;;;;;;21.67;11.97;;;16.20;99.90;;;;;;5068298;28;20438;-79
2022/04/14 07:42:29;;;;;;;19.60;12.00;;;16.20;99.90;;;;;;5032707;28;20469;-80
2022/04/14 07:44:55;;;;;;;17.80;10.80;;;16.20;99.90;;;;;;5056376;28;20191;-80
2022/04/14 07:47:20;;;;;;;19.60;9.93;;;16.30;99.90;;;;;;5071367;28;20409;-80
2022/04/14 07:49:46;;;;;;;20.63;10.43;;;16.30;99.90;;;;;;5051915;28;20179;-80
2022/04/14 07:52:13;;;;;;;15.90;9.70;;;16.50;99.90;;;;;;5052263;28;20210;-80
2022/04/14 07:54:38;;;;;;;16.97;10.80;;;16.50;99.90;;;;;;5052304;28;20188;-80
2022/04/14 07:57:04;;;;;;;15.40;10.63;;;16.70;99.90;;;;;;5033656;28;20426;-80
2022/04/14 07:59:29;;;;;;;15.90;10.10;;;16.80;99.90;;;;;;5034441;28;20179;-80
2022/04/14 08:02:00;;;;;;;17.40;11.30;;;16.80;99.90;;;;;;5052289;28;20171;-80
2022/04/14 08:04:30;;;;;;;17.50;10.67;;;16.80;99.90;;;;;;5051693;28;20807;-80
2022/04/14 08:06:56;;;;;;;14.67;10.13;;;16.80;99.90;;;;;;5051421;28;20842;-80
2022/04/14 08:09:21;;;;;;;15.80;9.60;;;16.80;99.90;;;;;;5034338;28;20461;-80
2022/04/14 08:11:47;;;;;;;19.83;12.00;;;17.00;99.90;;;;;;5051798;28;20180;-80
2022/04/14 08:14:13;;;;;;;16.60;10.70;;;17.20;99.90;;;;;;5062106;28;20210;-80
2022/04/14 08:16:39;;;;;;;17.30;11.37;;;17.30;99.90;;;;;;5071106;28;20203;-80
2022/04/14 08:19:04;;;;;;;18.83;10.60;;;17.20;99.90;;;;;;5072188;28;20413;-79
2022/04/14 08:21:30;;;;;;;15.53;10.23;;;17.30;99.90;;;;;;5054067;28;20466;-78
2022/04/14 08:23:57;;;;;;;13.30;10.40;;;17.30;99.90;;;;;;5053995;28;20178;-79
2022/04/14 08:26:23;;;;;;;15.27;11.10;;;17.10;99.90;;;;;;5071399;28;20416;-79
2022/04/14 08:28:49;;;;;;;18.77;11.20;;;17.20;99.90;;;;;;5071740;28;20421;-79
2022/04/14 08:31:16;;;;;;;25.07;11.67;;;17.20;99.90;;;;;;5071779;28;20546;-79
2022/04/14 08:33:43;;;;;;;15.00;9.57;;;17.40;99.90;;;;;;5071256;28;20178;-79
2022/04/14 08:36:13;;;;;;;16.13;11.20;;;17.50;99.90;;;;;;5054105;28;20479;-79
2022/04/14 08:38:46;;;;;;;16.60;9.37;;;17.70;99.90;;;;;;5087018;22;20934;-83
2022/04/14 08:41:13;;;;;;;13.27;9.20;;;17.80;99.90;;;;;;5023680;28;20561;-82
2022/04/14 08:43:58;;;;;;;11.93;8.87;;;18.10;99.90;;;;;;5046294;28;20435;-81
2022/04/14 08:46:25;;;;;;;11.97;8.60;;;18.80;99.90;;;;;;5042609;28;21080;-82
2022/04/14 08:48:51;;;;;;;9.47;7.40;;;20.20;99.90;;;;;;5073420;28;20473;-82
2022/04/14 08:51:20;;;;;;;11.50;8.83;;;21.80;99.90;;;;;;5056234;28;20414;-83
2022/04/14 08:53:48;;;;;;;9.97;7.00;;;23.30;99.90;;;;;;5055714;28;20438;-84
2022/04/14 08:56:14;;;;;;;13.67;8.73;;;24.50;99.90;;;;;;5053264;28;20466;-83
2022/04/14 08:58:42;;;;;;;11.83;8.77;;;25.70;99.90;;;;;;5054381;28;20472;-83
2022/04/14 09:01:08;;;;;;;15.93;9.50;;;26.90;99.90;;;;;;5054405;28;20417;-83
2022/04/14 09:03:34;;;;;;;12.20;10.00;;;27.60;99.30;;;;;;5071741;28;20412;-83
2022/04/14 09:06:01;;;;;;;11.77;8.83;;;27.80;95.20;;;;;;5073378;28;20439;-83
2022/04/14 09:08:26;;;;;;;14.90;9.10;;;28.40;94.40;;;;;;5070853;28;20409;-82
2022/04/14 09:10:52;;;;;;;11.80;9.23;;;29.10;91.00;;;;;;5061228;28;20494;-83
2022/04/14 09:13:20;;;;;;;12.47;9.30;;;29.20;85.00;;;;;;5051673;28;20281;-83
2022/04/14 09:15:46;;;;;;;12.80;8.90;;;29.80;83.40;;;;;;5049142;28;20226;-83
2022/04/14 09:18:14;;;;;;;17.47;10.67;;;30.80;79.30;;;;;;5067505;28;20421;-83
2022/04/14 09:20:42;;;;;;;14.90;10.20;;;31.10;69.60;;;;;;5035995;28;20428;-87
2022/04/14 09:23:13;;;;;;;14.43;10.47;;;30.20;63.70;;;;;;5030316;28;20790;-85
2022/04/14 09:25:40;;;;;;;13.47;8.90;;;29.80;66.90;;;;;;5029884;28;20446;-86
2022/04/14 09:28:10;;;;;;;12.87;9.77;;;29.90;73.90;;;;;;5030389;28;20489;-83
2022/04/14 09:30:36;;;;;;;13.23;9.87;;;30.00;69.50;;;;;;5014299;28;20871;-83
2022/04/14 09:33:02;;;;;;;12.37;10.33;;;30.80;72.60;;;;;;5032417;28;20455;-83
2022/04/14 09:35:31;;;;;;;13.53;9.57;;;31.30;63.60;;;;;;5032436;28;20458;-83
2022/04/14 09:38:01;;;;;;;14.57;10.10;;;32.10;63.70;;;;;;5032335;28;20449;-83
2022/04/14 09:40:30;;;;;;;12.73;9.30;;;33.20;59.50;;;;;;5036739;28;20499;-83
2022/04/14 09:42:56;;;;;;;12.83;9.20;;;34.00;57.30;;;;;;5042551;28;20799;-83
2022/04/14 09:45:25;;;;;;;11.70;9.03;;;33.80;54.30;;;;;;5045253;28;20425;-83
2022/04/14 09:47:52;;;;;;;10.90;8.27;;;34.30;52.10;;;;;;5065329;28;20425;-83
2022/04/14 09:50:40;;;;;;;11.67;9.03;;;34.50;51.90;;;;;;5075416;28;20943;-83
2022/04/14 09:53:09;;;;;;;11.30;8.23;;;35.20;50.80;;;;;;5057196;28;20947;-83
2022/04/14 09:55:36;;;;;;;11.37;8.27;;;35.70;48.50;;;;;;5075794;28;20445;-83
2022/04/14 09:58:16;;;;;;;10.57;8.40;;;36.10;47.50;;;;;;5064911;28;20434;-84
2022/04/14 10:00:47;;;;;;;10.90;9.07;;;36.80;46.50;;;;;;5044063;28;20418;-84
2022/04/14 10:03:25;;;;;;;13.30;8.40;;;36.80;43.90;;;;;;5016372;28;20725;-84
2022/04/14 10:05:55;;;;;;;11.57;9.63;;;37.10;43.60;;;;;;5016332;28;20410;-83
2022/04/14 10:08:22;;;;;;;12.40;9.07;;;37.30;41.40;;;;;;5015584;28;20501;-85
2022/04/14 10:10:50;;;;;;;11.20;9.17;;;37.20;40.50;;;;;;5016596;28;20415;-84
2022/04/14 10:13:17;;;;;;;12.10;9.60;;;37.10;39.40;;;;;;5015877;28;20819;-84
2022/04/14 10:15:53;;;;;;;15.50;11.03;;;36.20;40.50;;;;;;5016209;28;20463;-84
2022/04/14 10:18:19;;;;;;;14.53;9.20;;;36.10;41.60;;;;;;5014976;28;20423;-83
2022/04/14 10:20:46;;;;;;;12.90;9.20;;;36.10;42.40;;;;;;5016514;28;20423;-84
2022/04/14 10:23:14;;;;;;;12.47;10.17;;;36.10;41.80;;;;;;5033970;28;20375;-84
2022/04/14 10:25:41;;;;;;;13.93;10.00;;;34.90;41.60;;;;;;5033571;28;20549;-84
2022/04/14 10:28:14;;;;;;;12.27;9.93;;;33.40;43.20;;;;;;5050916;28;20497;-85
2022/04/14 10:30:44;;;;;;;12.50;9.60;;;34.00;43.40;;;;;;5036051;28;20430;-86
2022/04/14 10:33:10;;;;;;;13.83;10.20;;;35.70;43.50;;;;;;5036703;28;20457;-86
2022/04/14 10:35:35;;;;;;;14.50;10.50;;;36.00;40.10;;;;;;5036734;28;20457;-85
2022/04/14 10:38:10;;;;;;;13.70;9.90;;;33.30;40.90;;;;;;5035284;28;20422;-85
2022/04/14 10:40:37;;;;;;;15.00;10.90;;;31.60;43.80;;;;;;5052130;28;20574;-85
2022/04/14 10:43:07;;;;;;;14.47;12.93;;;30.70;46.60;;;;;;5063728;28;20445;-85
2022/04/14 10:45:49;;;;;;;13.80;12.23;;;32.00;45.10;;;;;;5055407;28;20422;-85
2022/04/14 10:48:41;;;;;;;14.70;10.50;;;31.00;46.00;;;;;;5055034;28;20805;-85
2022/04/14 10:51:57;;;;;;;14.87;11.17;;;33.50;45.60;;;;;;5039918;28;20488;-85
2022/04/14 10:54:22;;;;;;;13.57;10.80;;;32.10;43.30;;;;;;5042044;28;20425;-85
2022/04/14 10:56:50;;;;;;;13.00;9.70;;;31.40;45.90;;;;;;5034639;28;20544;-85
2022/04/14 10:59:41;;;;;;;11.60;10.40;;;32.30;46.20;;;;;;5052355;28;20211;-85
2022/04/14 11:02:07;;;;;;;13.27;11.13;;;32.70;44.10;;;;;;5063282;28;20945;-85
2022/04/14 11:04:42;;;;;;;11.23;9.50;;;33.40;43.30;;;;;;5056638;28;20490;-85
2022/04/14 11:07:15;;;;;;;13.23;11.07;;;32.10;43.90;;;;;;5045810;28;20199;-85
2022/04/14 11:09:51;;;;;;;11.60;10.30;;;31.10;45.70;;;;;;5039478;28;20445;-85
2022/04/14 11:12:25;;;;;;;14.40;12.23;;;31.60;45.80;;;;;;5055175;28;20420;-85
2022/04/14 11:15:08;;;;;;;13.80;10.70;;;32.80;46.00;;;;;;5073069;28;20412;-85
2022/04/14 11:20:56;;;;;;;14.20;11.30;;;31.00;45.40;;;;;;5073110;28;20755;-85
2022/04/14 11:23:27;;;;;;;14.07;10.93;;;29.30;47.30;;;;;;5055131;28;20422;-85
2022/04/14 11:26:01;;;;;;;13.07;9.80;;;29.90;51.50;;;;;;5072847;28;20232;-85
2022/04/14 11:28:31;;;;;;;12.80;10.07;;;32.50;48.80;;;;;;5071952;28;20470;-86
2022/04/14 11:31:03;;;;;;;11.90;9.40;;;34.60;46.10;;;;;;5072787;28;20757;-85
2022/04/14 11:33:31;;;;;;;10.60;8.87;;;35.50;41.90;;;;;;5072887;28;20486;-85
2022/04/14 11:36:09;;;;;;;10.93;9.53;;;36.90;41.10;;;;;;5058833;28;20498;-85
2022/04/14 11:38:56;;;;;;;13.00;10.17;;;37.40;40.70;;;;;;5049153;28;20502;-86
2022/04/14 11:41:35;;;;;;;13.40;10.70;;;38.20;40.10;;;;;;5045679;28;21013;-86
2022/04/14 11:44:03;;;;;;;13.10;10.53;;;38.00;39.30;;;;;;5063362;28;20471;-86
2022/04/14 11:46:30;;;;;;;12.97;9.70;;;39.50;38.50;;;;;;5042413;28;20421;-86
2022/04/14 11:48:56;;;;;;;11.77;9.40;;;39.60;37.30;;;;;;5032121;28;20466;-85
2022/04/14 11:51:21;;;;;;;14.27;10.43;;;38.80;36.30;;;;;;5036945;28;20458;-86
2022/04/14 11:53:50;;;;;;;10.00;8.63;;;39.30;35.60;;;;;;5025053;28;20413;-85
2022/04/14 11:56:17;;;;;;;12.10;9.67;;;39.20;35.50;;;;;;5072296;28;20681;-85
2022/04/14 11:58:43;;;;;;;11.17;9.40;;;37.30;35.80;;;;;;5071466;28;20472;-85
2022/04/14 12:01:09;;;;;;;10.67;9.57;;;35.60;38.00;;;;;;5072377;28;20413;-86
2022/04/14 12:03:34;;;;;;;11.53;8.83;;;35.20;38.90;;;;;;5072079;28;20486;-86
2022/04/14 12:06:05;;;;;;;10.70;8.93;;;35.20;39.60;;;;;;5072100;28;20253;-85
2022/04/14 12:08:31;;;;;;;10.00;7.70;;;34.10;38.60;;;;;;5053363;28;20206;-86
2022/04/14 12:11:09;;;;;;;12.50;8.43;;;32.80;38.30;;;;;;5043533;28;20959;-85
2022/04/14 12:13:34;;;;;;;13.17;9.70;;;31.40;40.30;;;;;;5045562;28;20273;-85
2022/04/14 12:16:05;;;;;;;10.37;8.30;;;29.80;42.10;;;;;;5045424;28;20539;-85
2022/04/14 12:18:33;;;;;;;10.60;7.70;;;29.40;44.00;;;;;;5053448;28;20317;-85
2022/04/14 12:20:58;;;;;;;9.43;6.97;;;31.40;44.50;;;;;;5053897;28;20443;-85
2022/04/14 12:23:24;;;;;;;10.63;8.37;;;32.00;42.20;;;;;;5044360;28;20428;-85
2022/04/14 12:25:52;;;;;;;12.53;9.90;;;31.90;42.50;;;;;;5047452;28;20213;-85
2022/04/14 12:28:18;;;;;;;10.40;8.17;;;33.00;42.10;;;;;;5071656;28;20175;-85
2022/04/14 12:30:43;;;;;;;11.23;9.17;;;34.40;41.20;;;;;;5053696;28;20451;-86
2022/04/14 12:33:09;;;;;;;13.30;9.77;;;34.40;40.40;;;;;;5048517;28;20236;-86